Time;durP1;ratioP1;P1;durP2;ratioP2;P2;SDS_P1;SDS_P2;PMS_P1;PMS_P2;Temp;Humidity;BMP_temperature;BMP_pressure;BME280_temperature;BME280_humidity;BME280_pressure;Samples;Min_cycle;Max_cycle;Signal;HPM_P1;HPM_P2
2022/01/10 00:02:07;;;;;;;4.32;1.42;;;;;;;5.28;86.57;93105.97;5098060;28;20676;-71
2022/01/10 00:04:34;;;;;;;3.00;1.73;;;;;;;5.34;86.61;93104.63;5111033;28;20680;-72
2022/01/10 00:07:00;;;;;;;3.40;2.03;;;;;;;5.36;86.69;93109.69;5108011;28;20201;-72
2022/01/10 00:09:27;;;;;;;3.40;1.67;;;;;;;5.32;86.28;93103.44;5104522;28;20226;-72
2022/01/10 00:11:56;;;;;;;2.30;1.50;;;;;;;5.26;86.61;93112.78;5109243;28;20214;-72
2022/01/10 00:14:22;;;;;;;1.85;1.20;;;;;;;5.33;86.52;93115.69;5109299;28;20202;-72
2022/01/10 00:16:49;;;;;;;3.08;1.90;;;;;;;5.27;86.76;93109.00;5109293;28;20693;-72
2022/01/10 00:19:16;;;;;;;2.10;1.33;;;;;;;5.29;86.89;93112.13;5109782;28;20229;-72
2022/01/10 00:21:43;;;;;;;2.42;1.73;;;;;;;5.30;87.01;93105.66;5109791;28;20205;-71
2022/01/10 00:24:10;;;;;;;2.05;1.40;;;;;;;5.26;87.23;93100.16;5109764;28;20209;-71
2022/01/10 00:26:37;;;;;;;1.73;1.40;;;;;;;5.22;87.44;93109.97;5109964;28;20574;-72
2022/01/10 00:29:05;;;;;;;3.15;1.77;;;;;;;5.23;87.35;93105.41;5114067;28;20271;-72
2022/01/10 00:31:32;;;;;;;2.83;2.00;;;;;;;5.18;87.72;93109.09;5114524;28;20208;-71
2022/01/10 00:33:59;;;;;;;3.70;2.20;;;;;;;5.15;87.95;93103.59;5114254;28;20205;-72
2022/01/10 00:36:26;;;;;;;2.60;1.88;;;;;;;5.08;88.28;93104.13;5114143;28;20262;-73
2022/01/10 00:38:53;;;;;;;4.68;2.05;;;;;;;5.07;88.60;93112.50;5113835;28;20241;-72
2022/01/10 00:41:20;;;;;;;2.50;1.77;;;;;;;5.03;88.69;93116.97;5113865;28;20241;-72
2022/01/10 00:43:48;;;;;;;4.55;2.40;;;;;;;5.02;88.93;93115.41;5114441;28;20691;-72
2022/01/10 00:46:17;;;;;;;5.80;2.40;;;;;;;4.95;88.85;93107.88;5114558;28;20233;-72
2022/01/10 00:48:44;;;;;;;3.50;1.92;;;;;;;5.01;88.92;93114.59;5114203;28;20209;-72
2022/01/10 00:51:11;;;;;;;6.00;1.83;;;;;;;5.02;88.89;93104.66;5103383;28;20615;-72
2022/01/10 00:53:38;;;;;;;4.97;2.88;;;;;;;5.10;88.78;93101.88;5112199;28;20194;-72
2022/01/10 00:56:08;;;;;;;7.68;2.47;;;;;;;5.10;88.58;93101.88;5114688;28;20617;-72
2022/01/10 00:58:36;;;;;;;2.65;1.52;;;;;;;5.12;88.43;93098.88;5101311;28;20439;-72
2022/01/10 01:01:03;;;;;;;3.80;2.00;;;;;;;5.12;88.65;93098.88;5114404;28;20643;-71
2022/01/10 01:03:31;;;;;;;3.90;1.40;;;;;;;5.11;88.41;93102.66;5114603;28;20201;-71
2022/01/10 01:05:58;;;;;;;3.15;1.80;;;;;;;5.12;88.43;93085.47;5114564;28;20205;-72
2022/01/10 01:08:27;;;;;;;5.18;2.25;;;;;;;5.17;88.15;93096.00;5113789;28;20198;-72
2022/01/10 01:13:54;;;;;;;2.75;1.73;;;;;;;5.17;88.21;93091.41;5114465;28;20263;-71
2022/01/10 01:16:31;;;;;;;3.47;1.55;;;;;;;5.14;88.49;93096.66;5113940;28;20561;-71
2022/01/10 01:19:50;;;;;;;6.60;1.70;;;;;;;5.12;88.46;93094.28;5113954;28;20294;-71
2022/01/10 01:24:41;;;;;;;1.70;1.08;;;;;;;5.15;88.18;93082.13;5100319;28;20193;-72
2022/01/10 01:27:08;;;;;;;1.08;0.95;;;;;;;5.15;88.54;93087.50;5113501;28;20217;-72
2022/01/10 01:29:35;;;;;;;2.72;1.77;;;;;;;5.14;88.70;93088.59;5113873;28;20210;-71
2022/01/10 01:32:02;;;;;;;1.67;1.30;;;;;;;5.14;88.74;93084.03;5113931;28;20545;-72
2022/01/10 01:34:30;;;;;;;2.45;1.67;;;;;;;5.13;88.78;93085.13;5113586;28;20205;-71
2022/01/10 01:36:57;;;;;;;2.05;1.20;;;;;;;5.14;89.22;93081.34;5112294;28;20203;-73
2022/01/10 01:39:29;;;;;;;4.38;1.70;;;;;;;5.08;89.26;93076.50;5100463;28;20232;-73
2022/01/10 01:42:02;;;;;;;3.13;1.90;;;;;;;4.99;89.50;93080.06;5113446;28;20225;-72
2022/01/10 01:44:29;;;;;;;2.13;1.50;;;;;;;5.00;90.02;93075.47;5103777;28;20312;-73
2022/01/10 01:46:57;;;;;;;4.10;1.77;;;;;;;4.98;90.18;93070.44;5110043;28;20255;-71
2022/01/10 01:49:24;;;;;;;3.70;1.70;;;;;;;4.97;90.79;93071.56;5113536;28;20210;-72
2022/01/10 01:51:52;;;;;;;4.70;2.17;;;;;;;4.90;90.75;93065.94;5113862;28;20213;-71
2022/01/10 01:54:20;;;;;;;3.88;2.20;;;;;;;4.93;90.88;93065.28;5113175;28;20229;-71
2022/01/10 01:56:48;;;;;;;4.07;2.10;;;;;;;4.86;90.92;93059.66;5113371;28;20198;-71
2022/01/10 01:59:16;;;;;;;4.00;2.42;;;;;;;4.87;91.27;93063.94;5101751;28;20325;-71
2022/01/10 02:01:43;;;;;;;5.07;2.38;;;;;;;4.79;91.49;93072.03;5097765;28;20205;-71
2022/01/10 02:04:10;;;;;;;4.47;2.63;;;;;;;4.77;91.76;93056.28;5113638;28;20209;-71
2022/01/10 02:06:37;;;;;;;6.05;2.88;;;;;;;4.78;91.79;93065.91;5112636;28;20201;-73
2022/01/10 02:09:06;;;;;;;2.45;2.00;;;;;;;4.79;92.07;93063.97;5113190;28;20239;-71
2022/01/10 02:11:33;;;;;;;4.05;2.45;;;;;;;4.69;92.57;93075.91;5112461;28;20222;-72
2022/01/10 02:14:01;;;;;;;5.55;2.03;;;;;;;4.64;92.98;93068.09;5112900;28;20269;-72
2022/01/10 02:16:39;;;;;;;5.35;2.72;;;;;;;4.62;92.98;93075.66;5112993;27;20243;-72
2022/01/10 02:19:06;;;;;;;4.30;2.47;;;;;;;4.60;93.57;93073.31;5113146;28;20220;-73
2022/01/10 02:21:35;;;;;;;3.30;1.88;;;;;;;4.60;93.74;93072.53;5112433;28;20198;-73
2022/01/10 02:24:03;;;;;;;4.93;2.75;;;;;;;4.49;94.08;93066.00;5112281;28;20205;-73
2022/01/10 02:26:30;;;;;;;3.42;1.42;;;;;;;4.46;94.58;93061.28;5112420;28;20598;-74
2022/01/10 02:28:57;;;;;;;2.80;1.75;;;;;;;4.39;94.77;93055.66;5112686;28;20540;-74
2022/01/10 02:31:24;;;;;;;4.43;2.33;;;;;;;4.42;94.99;93071.09;5112606;28;20210;-73
2022/01/10 02:33:56;;;;;;;5.20;2.17;;;;;;;4.43;94.93;93069.97;5112292;28;20882;-73
2022/01/10 02:36:24;;;;;;;4.40;2.63;;;;;;;4.47;95.18;93084.31;5111964;28;20198;-72
2022/01/10 02:38:54;;;;;;;4.70;2.42;;;;;;;4.41;95.18;93085.59;5111711;28;20320;-71
2022/01/10 02:41:24;;;;;;;9.10;4.10;;;;;;;4.41;95.53;93074.88;5112407;28;20242;-72
2022/01/10 02:43:50;;;;;;;4.97;2.63;;;;;;;4.37;95.70;93079.34;5112368;28;20580;-72
2022/01/10 02:46:18;;;;;;;5.32;3.00;;;;;;;4.42;96.06;93076.44;5112323;28;20258;-72
2022/01/10 02:48:45;;;;;;;3.38;2.05;;;;;;;4.42;96.25;93081.81;5111764;28;20270;-72
2022/01/10 02:51:12;;;;;;;7.25;3.17;;;;;;;4.39;96.66;93082.44;5111381;28;20206;-72
2022/01/10 02:53:39;;;;;;;8.30;3.83;;;;;;;4.40;96.80;93075.97;5112302;28;20197;-72
2022/01/10 02:56:07;;;;;;;4.85;3.13;;;;;;;4.40;97.07;93073.31;5112223;28;20627;-72
2022/01/10 02:58:34;;;;;;;10.90;3.85;;;;;;;4.46;97.21;93072.00;5106273;28;20229;-72
2022/01/10 03:01:02;;;;;;;11.07;5.53;;;;;;;4.48;97.09;93069.78;5104498;28;20568;-71
2022/01/10 03:03:30;;;;;;;3.95;2.45;;;;;;;4.48;97.13;93078.63;5112337;28;20205;-71
2022/01/10 03:05:57;;;;;;;7.18;4.90;;;;;;;4.42;97.21;93081.81;5112388;28;20556;-72
2022/01/10 03:08:25;;;;;;;10.90;5.05;;;;;;;4.46;97.14;93077.38;5111952;28;20265;-72
2022/01/10 03:10:52;;;;;;;10.50;6.38;;;;;;;4.47;97.20;93084.31;5111648;28;20699;-71
2022/01/10 03:13:20;;;;;;;19.27;9.15;;;;;;;4.42;97.33;93092.53;5111794;28;20209;-72
2022/01/10 03:15:47;;;;;;;8.57;4.03;;;;;;;4.38;97.39;93083.56;5112088;28;20284;-72
2022/01/10 03:18:15;;;;;;;11.00;5.35;;;;;;;4.38;97.42;93086.25;5111784;28;20226;-72
2022/01/10 03:20:41;;;;;;;8.95;3.83;;;;;;;4.39;97.22;93077.09;5111678;28;20224;-73
2022/01/10 03:23:09;;;;;;;10.75;5.03;;;;;;;4.41;97.37;93083.69;5111904;28;20282;-72
2022/01/10 03:25:36;;;;;;;7.15;4.35;;;;;;;4.39;97.37;93085.13;5098050;28;20241;-72
2022/01/10 03:28:10;;;;;;;13.52;5.25;;;;;;;4.40;97.31;93084.03;5111405;28;20668;-73
2022/01/10 03:30:39;;;;;;;10.82;4.65;;;;;;;4.36;97.41;93088.50;5111738;28;20196;-73
2022/01/10 03:33:08;;;;;;;6.60;3.33;;;;;;;4.34;97.43;93082.66;5111995;28;20197;-73
2022/01/10 03:35:35;;;;;;;10.35;4.63;;;;;;;4.27;97.44;93070.56;5111417;28;20201;-73
2022/01/10 03:38:02;;;;;;;10.82;4.65;;;;;;;4.35;97.39;93078.88;5111476;28;20198;-73
2022/01/10 03:40:29;;;;;;;5.10;2.60;;;;;;;4.38;97.34;93081.66;5111165;28;20208;-73
2022/01/10 03:42:56;;;;;;;6.53;4.05;;;;;;;4.35;96.97;93085.03;5111405;28;20244;-74
2022/01/10 03:45:23;;;;;;;8.40;4.63;;;;;;;4.35;97.17;93076.97;5107408;28;20599;-73
2022/01/10 03:47:51;;;;;;;8.18;4.25;;;;;;;4.38;97.34;93091.59;5101698;28;20202;-72
2022/01/10 03:50:18;;;;;;;8.45;3.85;;;;;;;4.30;97.07;93074.50;5111211;28;20201;-73
2022/01/10 03:52:45;;;;;;;7.88;4.07;;;;;;;4.36;96.88;93097.31;5111510;28;20250;-73
2022/01/10 03:55:12;;;;;;;5.63;2.50;;;;;;;4.34;96.60;93090.72;5111291;28;20219;-73
2022/01/10 03:57:39;;;;;;;6.93;4.10;;;;;;;4.37;96.72;93101.56;5111327;28;20208;-73
2022/01/10 04:00:08;;;;;;;8.13;3.75;;;;;;;4.32;96.64;93100.97;5110666;28;20221;-73
2022/01/10 04:02:37;;;;;;;6.43;3.30;;;;;;;4.27;96.61;93108.06;5110557;28;20206;-72
2022/01/10 04:05:07;;;;;;;4.45;3.15;;;;;;;4.27;96.52;93097.34;5111028;28;20564;-73
2022/01/10 04:07:33;;;;;;;7.15;2.83;;;;;;;4.22;96.43;93107.50;5111186;28;20687;-73
2022/01/10 04:10:00;;;;;;;9.45;4.78;;;;;;;4.16;96.49;93108.78;5104976;28;20253;-72
2022/01/10 04:12:27;;;;;;;6.35;3.25;;;;;;;4.20;96.40;93107.81;5104069;28;20198;-76
2022/01/10 04:14:54;;;;;;;3.75;2.20;;;;;;;4.12;96.06;93111.31;5110949;28;20206;-72
2022/01/10 04:17:21;;;;;;;9.27;3.97;;;;;;;4.12;96.30;93114.00;5110887;28;20533;-72
2022/01/10 04:19:48;;;;;;;4.53;2.95;;;;;;;4.09;96.14;93112.00;5097632;28;20222;-73
2022/01/10 04:22:16;;;;;;;3.95;1.85;;;;;;;4.19;96.20;93116.19;5111627;28;20545;-73
2022/01/10 04:24:43;;;;;;;6.10;3.72;;;;;;;4.10;96.10;93121.56;5098067;28;20201;-73
2022/01/10 04:27:10;;;;;;;5.28;2.97;;;;;;;4.05;96.34;93127.13;5111259;28;20228;-73
2022/01/10 04:29:37;;;;;;;4.07;2.33;;;;;;;4.07;96.22;93126.81;5110834;28;20205;-73
2022/01/10 04:32:05;;;;;;;5.53;3.03;;;;;;;4.01;96.14;93131.56;5110340;28;20205;-74
2022/01/10 04:34:32;;;;;;;3.75;2.30;;;;;;;4.00;96.26;93129.97;5111002;28;20237;-74
2022/01/10 04:36:59;;;;;;;3.72;2.08;;;;;;;4.05;96.37;93137.84;5110618;28;20194;-74
2022/01/10 04:39:27;;;;;;;6.60;3.75;;;;;;;4.00;96.30;93138.03;5110921;28;20241;-74
2022/01/10 04:41:54;;;;;;;6.80;3.72;;;;;;;4.00;96.48;93138.03;5109614;28;20732;-73
2022/01/10 04:44:21;;;;;;;7.50;2.92;;;;;;;4.03;96.60;93140.06;5101758;28;20596;-74
2022/01/10 04:46:48;;;;;;;8.90;3.85;;;;;;;4.02;96.59;93143.84;5105819;28;20225;-76
2022/01/10 04:49:21;;;;;;;5.00;2.80;;;;;;;4.06;96.72;93144.00;5111245;28;20301;-74
2022/01/10 04:51:49;;;;;;;4.00;2.22;;;;;;;4.04;96.63;93146.19;5110879;28;20280;-73
2022/01/10 04:54:16;;;;;;;4.35;2.83;;;;;;;4.02;96.76;93143.84;5109815;28;20340;-73
2022/01/10 04:56:44;;;;;;;4.72;2.42;;;;;;;3.98;96.94;93142.91;5110101;28;20244;-74
2022/01/10 04:59:11;;;;;;;8.32;4.15;;;;;;;4.02;96.90;93154.56;5099500;28;20589;-73
2022/01/10 05:01:40;;;;;;;6.13;3.25;;;;;;;3.98;96.82;93153.63;5107629;28;20198;-75
2022/01/10 05:04:07;;;;;;;6.13;3.50;;;;;;;4.01;96.92;93157.56;5110419;28;20201;-74
2022/01/10 05:06:34;;;;;;;7.30;3.58;;;;;;;4.05;96.99;93153.91;5110611;28;20197;-76
2022/01/10 05:09:01;;;;;;;7.13;3.67;;;;;;;4.06;96.77;93155.50;5110029;28;20225;-72
2022/01/10 05:11:27;;;;;;;6.00;3.33;;;;;;;4.06;96.89;93154.72;5110266;28;20201;-72
2022/01/10 05:13:56;;;;;;;5.50;2.97;;;;;;;4.04;96.69;93155.03;5111040;28;20206;-71
2022/01/10 05:16:23;;;;;;;5.15;2.90;;;;;;;3.95;96.51;93159.66;5113913;28;20202;-71
2022/01/10 05:18:49;;;;;;;5.38;3.00;;;;;;;3.90;96.54;93157.94;5113912;28;20557;-71
2022/01/10 05:21:17;;;;;;;6.93;4.03;;;;;;;3.81;96.61;93159.06;5108926;28;20259;-72
2022/01/10 05:23:44;;;;;;;4.88;2.38;;;;;;;3.93;97.00;93167.22;5105484;28;20747;-72
2022/01/10 05:26:11;;;;;;;9.55;4.30;;;;;;;3.86;96.87;93169.59;5094665;28;20206;-72
2022/01/10 05:28:38;;;;;;;8.63;3.97;;;;;;;3.86;97.08;93172.28;5092347;28;20217;-72
2022/01/10 05:31:06;;;;;;;7.15;3.90;;;;;;;3.85;96.91;93168.81;5093418;28;20223;-72
2022/01/10 05:33:33;;;;;;;9.00;4.90;;;;;;;3.81;97.14;93180.50;5092873;28;20209;-71
2022/01/10 05:36:00;;;;;;;8.93;4.20;;;;;;;3.85;97.30;93182.19;5093333;28;20206;-71
2022/01/10 05:38:27;;;;;;;6.63;2.78;;;;;;;3.90;97.11;93173.22;5093128;28;20213;-72
2022/01/10 05:40:54;;;;;;;9.10;3.80;;;;;;;3.83;97.28;93186.28;5093208;28;20491;-72
2022/01/10 05:43:20;;;;;;;4.03;2.65;;;;;;;3.89;97.48;93188.50;5092568;28;20608;-72
2022/01/10 05:45:47;;;;;;;11.35;5.75;;;;;;;3.96;97.35;93181.88;5099676;28;20248;-72
2022/01/10 05:48:22;;;;;;;12.10;7.45;;;;;;;3.86;97.15;93177.63;5113026;28;20206;-72
2022/01/10 05:50:49;;;;;;;9.80;4.95;;;;;;;3.87;97.41;93187.22;5101378;28;20214;-71
2022/01/10 05:53:17;;;;;;;9.98;4.40;;;;;;;3.84;97.54;93185.97;5113241;28;20864;-71
2022/01/10 05:55:44;;;;;;;6.25;3.63;;;;;;;3.85;97.66;93186.75;5104991;28;20671;-72
2022/01/10 05:58:11;;;;;;;6.80;4.40;;;;;;;3.81;97.59;93191.22;5092959;28;20202;-71
2022/01/10 06:00:38;;;;;;;10.30;4.32;;;;;;;3.77;97.83;93195.63;5102248;28;20255;-72
2022/01/10 06:03:05;;;;;;;10.40;5.88;;;;;;;3.80;97.89;93197.66;5112656;28;20209;-72
2022/01/10 06:05:34;;;;;;;7.82;4.10;;;;;;;3.79;97.99;93209.47;5113384;28;20209;-73
2022/01/10 06:08:02;;;;;;;9.27;4.80;;;;;;;3.79;98.00;93210.28;5113124;28;20222;-73
2022/01/10 06:10:29;;;;;;;15.75;7.65;;;;;;;3.80;98.15;93195.00;5102871;28;20206;-72
2022/01/10 06:12:57;;;;;;;18.35;6.88;;;;;;;3.79;98.04;93204.91;5109866;28;20254;-73
2022/01/10 06:15:24;;;;;;;14.82;7.10;;;;;;;3.81;97.98;93205.38;5113004;28;20209;-72
2022/01/10 06:17:51;;;;;;;7.15;4.90;;;;;;;3.74;97.84;93201.63;5112432;28;20202;-73
2022/01/10 06:20:19;;;;;;;14.70;6.57;;;;;;;3.80;98.05;93216.41;5112163;28;20822;-72
2022/01/10 06:22:47;;;;;;;11.35;6.47;;;;;;;3.73;97.86;93210.75;5112936;28;20198;-73
2022/01/10 06:25:17;;;;;;;16.92;7.97;;;;;;;3.77;97.60;93217.03;5111858;28;20709;-73
2022/01/10 06:27:44;;;;;;;9.35;4.68;;;;;;;3.75;97.98;93203.19;5112914;28;20234;-73
2022/01/10 06:30:11;;;;;;;15.10;6.93;;;;;;;3.77;98.02;93217.03;5112746;28;20198;-73
2022/01/10 06:32:38;;;;;;;15.93;6.38;;;;;;;3.77;97.87;93217.03;5112750;28;20204;-72
2022/01/10 06:35:06;;;;;;;11.55;6.68;;;;;;;3.83;97.82;93221.09;5107902;28;20209;-72
2022/01/10 06:37:33;;;;;;;15.57;5.85;;;;;;;3.76;97.79;93220.81;5102271;28;20205;-74
2022/01/10 06:40:01;;;;;;;9.70;5.28;;;;;;;3.81;98.06;93218.00;5098020;28;20234;-73
2022/01/10 06:42:28;;;;;;;14.93;7.65;;;;;;;3.80;98.01;93224.44;5104043;28;20570;-73
2022/01/10 06:44:55;;;;;;;12.98;6.50;;;;;;;3.74;97.81;93218.47;5090294;28;20214;-74
2022/01/10 06:47:22;;;;;;;7.38;3.67;;;;;;;3.75;97.60;93219.25;5097391;28;20206;-74
2022/01/10 06:49:49;;;;;;;14.48;7.03;;;;;;;3.80;97.52;93229.81;5110646;28;20430;-74
2022/01/10 06:52:16;;;;;;;14.02;7.38;;;;;;;3.80;97.72;93237.84;5106648;28;20244;-74
2022/01/10 06:54:43;;;;;;;17.55;8.48;;;;;;;3.75;97.55;93225.41;5108097;28;20197;-73
2022/01/10 06:57:11;;;;;;;10.88;5.70;;;;;;;3.82;97.58;93236.41;5110621;28;20217;-73
2022/01/10 06:59:38;;;;;;;13.98;6.93;;;;;;;3.76;97.31;93236.91;5109182;28;20221;-73
2022/01/10 07:02:05;;;;;;;10.43;4.57;;;;;;;3.76;97.12;93237.69;5089359;28;20221;-74
2022/01/10 07:04:33;;;;;;;10.82;5.00;;;;;;;3.73;97.12;93242.88;5088705;28;20221;-74
2022/01/10 07:07:00;;;;;;;10.40;5.35;;;;;;;3.81;97.05;93244.78;5089352;28;20256;-74
2022/01/10 07:09:27;;;;;;;8.30;4.90;;;;;;;3.75;96.82;93246.03;5089992;28;20225;-74
2022/01/10 07:11:54;;;;;;;9.60;4.75;;;;;;;3.87;96.99;93251.50;5104734;28;20204;-74
2022/01/10 07:14:22;;;;;;;7.35;3.63;;;;;;;3.87;96.64;93249.63;5108993;28;20226;-74
2022/01/10 07:16:50;;;;;;;14.15;7.70;;;;;;;3.87;96.86;93244.25;5109913;28;20212;-75
2022/01/10 07:19:17;;;;;;;12.77;5.65;;;;;;;3.95;97.11;93250.72;5109415;28;20240;-74
2022/01/10 07:21:44;;;;;;;13.27;6.93;;;;;;;3.94;96.74;93257.19;5110141;28;20205;-74
2022/01/10 07:24:11;;;;;;;9.55;5.30;;;;;;;3.96;96.46;93257.66;5092663;28;20231;-75
2022/01/10 07:26:38;;;;;;;13.15;6.57;;;;;;;3.91;96.78;93261.28;5090114;28;20206;-74
2022/01/10 07:29:07;;;;;;;10.48;6.22;;;;;;;4.03;96.72;93263.28;5106283;28;20206;-74
2022/01/10 07:31:35;;;;;;;13.88;7.13;;;;;;;4.01;96.35;93260.13;5110307;28;20300;-74
2022/01/10 07:34:02;;;;;;;8.73;3.60;;;;;;;4.01;96.22;93262.81;5109575;28;20831;-74
2022/01/10 07:36:29;;;;;;;9.95;4.80;;;;;;;4.05;96.13;93265.66;5108775;28;20201;-73
2022/01/10 07:38:56;;;;;;;13.65;5.75;;;;;;;4.06;96.24;93270.69;5095787;28;20213;-76
2022/01/10 07:41:23;;;;;;;20.17;9.20;;;;;;;4.09;96.26;93269.28;5110035;28;20245;-74
2022/01/10 07:43:50;;;;;;;10.65;5.78;;;;;;;3.98;96.01;93276.84;5110117;28;20202;-75
2022/01/10 07:46:19;;;;;;;14.45;6.63;;;;;;;3.99;96.15;93278.41;5108999;28;20599;-75
2022/01/10 07:48:47;;;;;;;15.07;7.53;;;;;;;4.04;96.53;93286.28;5109546;28;20652;-74
2022/01/10 07:51:14;;;;;;;13.38;5.60;;;;;;;3.99;96.34;93286.44;5109796;28;20198;-75
2022/01/10 07:53:42;;;;;;;11.65;5.68;;;;;;;3.93;96.14;93285.06;5109092;28;20229;-74
2022/01/10 07:56:10;;;;;;;13.98;6.47;;;;;;;3.91;96.19;93287.28;5109937;28;20202;-74
2022/01/10 07:58:37;;;;;;;11.30;7.00;;;;;;;3.97;96.48;93275.28;5103390;28;20214;-74
2022/01/10 08:01:04;;;;;;;19.73;7.95;;;;;;;4.01;96.60;93276.22;5102098;28;20240;-75
2022/01/10 08:03:32;;;;;;;14.82;7.38;;;;;;;4.01;96.48;93276.22;5109474;28;20213;-74
2022/01/10 08:06:00;;;;;;;12.95;6.53;;;;;;;4.07;95.79;93282.19;5109465;28;20647;-74
2022/01/10 08:08:28;;;;;;;14.52;7.00;;;;;;;4.02;96.12;93285.03;5095582;28;20629;-74
2022/01/10 08:10:55;;;;;;;19.33;7.40;;;;;;;4.10;96.35;93279.63;5109496;28;20208;-74
2022/01/10 08:13:23;;;;;;;8.18;4.35;;;;;;;4.20;96.31;93273.97;5109765;28;20208;-75
2022/01/10 08:15:50;;;;;;;16.90;6.35;;;;;;;4.16;95.97;93277.59;5109089;28;20286;-74
2022/01/10 08:18:18;;;;;;;18.27;8.02;;;;;;;4.19;96.09;93274.28;5109453;28;20209;-75
2022/01/10 08:20:45;;;;;;;13.93;7.18;;;;;;;4.23;96.30;93267.97;5108895;28;20790;-75
2022/01/10 08:23:13;;;;;;;16.13;7.50;;;;;;;4.28;96.14;93270.44;5101211;28;20226;-75
2022/01/10 08:25:41;;;;;;;13.70;6.55;;;;;;;4.27;96.03;93276.91;5088949;28;20280;-74
2022/01/10 08:28:07;;;;;;;17.65;8.77;;;;;;;4.25;96.09;93281.81;5088768;28;20211;-74
2022/01/10 08:30:35;;;;;;;16.67;6.75;;;;;;;4.34;95.90;93279.09;5088641;28;20210;-74
2022/01/10 08:33:01;;;;;;;18.80;8.43;;;;;;;4.34;96.21;93278.31;5088754;28;20652;-73
2022/01/10 08:35:28;;;;;;;15.80;8.00;;;;;;;4.37;96.21;93275.78;5088426;28;20571;-74
2022/01/10 08:37:55;;;;;;;21.50;7.38;;;;;;;4.42;96.01;93285.53;5088475;28;20257;-74
2022/01/10 08:40:24;;;;;;;15.02;5.38;;;;;;;4.46;95.71;93286.47;5104106;28;20630;-75
2022/01/10 08:42:51;;;;;;;8.02;3.70;;;;;;;4.33;95.91;93284.78;5108945;28;20233;-73
2022/01/10 08:45:18;;;;;;;14.20;6.22;;;;;;;4.26;96.21;93294.09;5109275;28;20213;-73
2022/01/10 08:47:46;;;;;;;15.35;7.85;;;;;;;4.36;96.13;93292.19;5109253;28;20196;-74
2022/01/10 08:50:14;;;;;;;15.20;7.45;;;;;;;4.16;95.94;93297.13;5095967;28;20206;-74
2022/01/10 08:52:42;;;;;;;16.85;6.25;;;;;;;4.25;96.37;93300.56;5092648;28;20586;-74
2022/01/10 08:55:10;;;;;;;19.80;8.45;;;;;;;4.23;96.45;93293.97;5091998;28;20692;-75
2022/01/10 08:57:39;;;;;;;20.73;8.63;;;;;;;4.30;96.49;93299.59;5092537;28;20275;-73
2022/01/10 09:00:07;;;;;;;23.13;9.93;;;;;;;4.35;96.43;93298.66;5097015;28;20626;-76
2022/01/10 09:02:34;;;;;;;20.30;9.77;;;;;;;4.22;95.64;93298.53;5114215;28;20305;-75
2022/01/10 09:05:01;;;;;;;14.40;7.85;;;;;;;3.87;94.95;93302.41;5115142;28;20206;-75
2022/01/10 09:07:28;;;;;;;6.45;3.15;;;;;;;3.61;95.06;93299.75;5114187;28;20225;-75
2022/01/10 09:09:55;;;;;;;15.93;7.88;;;;;;;3.65;95.36;93300.72;5107830;28;20223;-75
2022/01/10 09:12:22;;;;;;;7.75;4.35;;;;;;;3.56;95.10;93314.09;5097328;28;20270;-75
2022/01/10 09:14:51;;;;;;;17.00;7.35;;;;;;;3.53;95.61;93308.59;5099785;28;20210;-75
2022/01/10 09:17:17;;;;;;;9.38;4.75;;;;;;;3.39;95.69;93311.44;5105213;28;20221;-75
2022/01/10 09:19:44;;;;;;;15.07;8.55;;;;;;;3.43;96.41;93315.03;5112166;28;20210;-74
2022/01/10 09:22:11;;;;;;;14.48;7.65;;;;;;;3.34;96.29;93311.56;5111573;28;20226;-74
2022/01/10 09:24:38;;;;;;;20.05;9.00;;;;;;;3.38;96.70;93304.50;5111836;28;20290;-74
2022/01/10 09:27:05;;;;;;;12.82;7.05;;;;;;;3.35;96.77;93307.81;5098070;28;20202;-74
2022/01/10 09:29:32;;;;;;;13.60;6.53;;;;;;;3.30;96.46;93310.63;5109881;27;20201;-74
2022/01/10 09:32:00;;;;;;;19.10;7.88;;;;;;;3.28;96.66;93312.06;5112234;28;20205;-74
2022/01/10 09:34:27;;;;;;;21.23;8.20;;;;;;;3.39;96.56;93313.31;5105050;28;20255;-74
2022/01/10 09:36:54;;;;;;;16.75;8.43;;;;;;;3.40;96.68;93310.34;5092303;28;20213;-73
2022/01/10 09:39:21;;;;;;;15.93;8.70;;;;;;;3.62;97.37;93311.25;5095818;28;20209;-74
2022/01/10 09:41:49;;;;;;;16.88;7.55;;;;;;;3.55;96.92;93307.16;5096914;28;20253;-74
2022/01/10 09:44:17;;;;;;;13.90;7.13;;;;;;;3.45;96.85;93309.38;5092299;28;20229;-74
2022/01/10 09:49:21;;;;;;;18.40;4.85;;;;;;;3.38;96.81;93311.75;5466833;22;20241;-77
2022/01/10 09:51:48;;;;;;;13.40;6.90;;;;;;;3.34;97.08;93316.94;4980495;28;20260;-77
2022/01/10 09:54:15;;;;;;;8.85;4.55;;;;;;;3.22;97.17;93304.19;4991777;28;20206;-76
2022/01/10 09:56:43;;;;;;;9.02;4.28;;;;;;;3.19;97.42;93320.06;4991773;28;20206;-76
2022/01/10 09:59:10;;;;;;;14.95;7.25;;;;;;;3.25;97.70;93318.81;4990951;28;20202;-76
2022/01/10 10:01:37;;;;;;;8.32;4.93;;;;;;;3.21;97.79;93315.19;4991505;28;20244;-76
2022/01/10 10:04:04;;;;;;;18.05;7.07;;;;;;;3.21;97.77;93307.16;4991870;28;20214;-76
2022/01/10 10:06:34;;;;;;;19.27;8.25;;;;;;;3.34;98.17;93314.25;4992108;28;20595;-77
2022/01/10 10:09:03;;;;;;;24.83;9.18;;;;;;;3.47;98.21;93305.28;4991373;28;20216;-77
2022/01/10 10:11:39;;;;;;;24.30;9.05;;;;;;;3.54;98.00;93305.59;4991450;28;20205;-79
2022/01/10 10:14:08;;;;;;;21.20;9.63;;;;;;;3.61;97.75;93309.69;4991020;28;20706;-77
2022/01/10 10:16:37;;;;;;;19.17;8.27;;;;;;;3.68;97.55;93307.31;4991722;28;20623;-76
2022/01/10 10:19:05;;;;;;;22.83;10.40;;;;;;;3.57;97.52;93296.91;4991581;28;20214;-77
2022/01/10 10:21:34;;;;;;;21.38;10.48;;;;;;;3.61;97.52;93307.00;4995708;28;20229;-76
2022/01/10 10:24:04;;;;;;;27.08;9.48;;;;;;;3.65;97.61;93315.97;4991608;28;20205;-77
2022/01/10 10:26:32;;;;;;;15.77;7.35;;;;;;;3.61;97.21;93309.69;4991429;28;20664;-76
2022/01/10 10:29:00;;;;;;;23.10;10.18;;;;;;;3.63;97.35;93302.13;4990996;28;20209;-75
2022/01/10 10:31:29;;;;;;;13.55;6.65;;;;;;;3.54;97.66;93300.25;4991108;28;20691;-76
2022/01/10 10:33:57;;;;;;;10.75;5.75;;;;;;;3.48;97.69;93306.84;4991267;28;20212;-76
2022/01/10 10:36:26;;;;;;;18.73;9.48;;;;;;;3.57;97.81;93309.50;4990990;28;20209;-78
2022/01/10 10:38:55;;;;;;;19.52;7.65;;;;;;;3.61;97.98;93309.69;4991073;28;20217;-77
2022/01/10 10:41:22;;;;;;;18.50;6.20;;;;;;;3.67;97.87;93297.72;4991214;28;20296;-78
2022/01/10 10:43:51;;;;;;;23.67;9.13;;;;;;;3.69;97.74;93300.88;4990825;28;20228;-77
2022/01/10 10:46:19;;;;;;;12.35;6.88;;;;;;;3.68;97.69;93308.13;4991009;28;20241;-77
2022/01/10 10:48:49;;;;;;;15.93;8.10;;;;;;;3.77;97.35;93300.06;4990931;28;20237;-78
2022/01/10 10:51:15;;;;;;;18.48;9.23;;;;;;;3.61;97.32;93312.34;4990768;28;20320;-77
2022/01/10 10:53:43;;;;;;;9.05;4.50;;;;;;;3.67;97.46;93313.78;4990804;28;20201;-78
2022/01/10 10:56:11;;;;;;;19.80;9.23;;;;;;;3.68;97.51;93310.00;4990455;28;20676;-77
2022/01/10 10:58:39;;;;;;;24.48;11.73;;;;;;;3.72;97.71;93306.34;4990736;28;20285;-78
2022/01/10 11:01:06;;;;;;;16.70;9.63;;;;;;;3.77;97.67;93308.09;4990780;28;20293;-77
2022/01/10 11:03:34;;;;;;;14.57;8.43;;;;;;;3.70;97.42;93313.13;4984651;28;20272;-77
2022/01/10 11:06:03;;;;;;;16.38;8.02;;;;;;;3.64;97.42;93320.56;4990120;28;20208;-77
2022/01/10 11:08:32;;;;;;;14.52;8.43;;;;;;;3.61;97.58;93321.19;4977778;28;20209;-77
2022/01/10 11:10:59;;;;;;;15.35;6.93;;;;;;;3.48;97.50;93330.94;4990373;28;20526;-76
2022/01/10 11:13:29;;;;;;;19.60;9.85;;;;;;;3.57;97.67;93323.69;4990407;28;20233;-76
2022/01/10 11:15:57;;;;;;;21.83;10.07;;;;;;;3.53;97.92;93325.44;4990003;28;20209;-77
2022/01/10 11:18:24;;;;;;;18.58;9.90;;;;;;;3.51;97.37;93327.66;4990455;28;20668;-77
2022/01/10 11:20:52;;;;;;;8.55;4.78;;;;;;;3.45;97.47;93328.88;4988617;28;20221;-74
2022/01/10 11:23:21;;;;;;;11.63;6.97;;;;;;;3.37;97.52;93324.34;4990039;28;20214;-77
2022/01/10 11:25:48;;;;;;;6.35;3.90;;;;;;;3.41;97.62;93329.84;4990375;28;20221;-75
2022/01/10 11:28:23;;;;;;;8.52;4.25;;;;;;;3.41;97.72;93333.31;4990406;28;20673;-76
2022/01/10 11:30:52;;;;;;;15.93;4.95;;;;;;;3.34;97.96;93338.34;4989548;28;20232;-75
2022/01/10 11:33:21;;;;;;;10.85;6.60;;;;;;;3.36;98.34;93336.13;4990515;28;20217;-77
2022/01/10 11:35:50;;;;;;;10.63;4.55;;;;;;;3.33;98.17;93331.41;4986406;28;20274;-75
2022/01/10 11:38:24;;;;;;;16.25;7.78;;;;;;;3.40;98.05;93337.09;4989080;28;20280;-77
2022/01/10 11:40:53;;;;;;;12.23;6.15;;;;;;;3.37;97.58;93335.03;4989547;28;20764;-77
2022/01/10 11:43:33;;;;;;;7.95;3.90;;;;;;;3.36;97.40;93330.78;4989744;28;20213;-76
2022/01/10 11:46:13;;;;;;;8.02;4.63;;;;;;;3.37;97.66;93332.38;4989451;28;20205;-75
2022/01/10 11:48:46;;;;;;;6.00;2.30;;;;;;;3.42;96.66;93334.88;4977992;28;20256;-76
2022/01/10 11:51:14;;;;;;;6.88;4.00;;;;;;;3.46;97.05;93343.84;4990202;28;20230;-76